createdAt,value
2023-03-22T00:00:15.675Z,39.67
2023-03-22T00:02:43.323Z,39.27
2023-03-22T00:05:11.075Z,38.67
2023-03-22T00:07:41.183Z,37.77
2023-03-22T00:10:09.374Z,40.43
2023-03-22T00:12:36.898Z,39.70
2023-03-22T00:15:04.840Z,38.83
2023-03-22T00:17:33.122Z,37.53
2023-03-22T00:20:00.615Z,37.47
2023-03-22T00:22:28.020Z,38.87
2023-03-22T00:24:55.567Z,39.30
2023-03-22T00:27:23.009Z,38.03
2023-03-22T00:29:52.869Z,36.80
2023-03-22T00:32:20.599Z,38.90
2023-03-22T00:34:48.124Z,37.43
2023-03-22T00:37:18.803Z,37.77
2023-03-22T00:39:46.440Z,35.23
2023-03-22T00:42:13.904Z,39.80
2023-03-22T00:44:41.579Z,37.50
2023-03-22T00:47:09.055Z,37.13
2023-03-22T00:49:37.730Z,38.73
2023-03-22T00:52:05.583Z,39.67
2023-03-22T00:54:33.093Z,33.97
2023-03-22T00:57:00.786Z,35.83
2023-03-22T00:59:28.602Z,36.23
2023-03-22T01:01:58.432Z,34.00
2023-03-22T01:04:26.473Z,36.73
2023-03-22T01:06:59.558Z,32.33
2023-03-22T01:09:29.744Z,34.37
2023-03-22T01:12:02.941Z,35.93
2023-03-22T01:14:31.900Z,34.83
2023-03-22T01:16:59.528Z,32.77
2023-03-22T01:19:30.134Z,34.60
2023-03-22T01:21:57.939Z,36.03
2023-03-22T01:24:25.582Z,34.93
2023-03-22T01:26:53.072Z,36.50
2023-03-22T01:29:20.711Z,33.50
2023-03-22T01:31:48.191Z,30.40
2023-03-22T01:34:15.687Z,32.03
2023-03-22T01:36:43.356Z,33.63
2023-03-22T01:39:11.629Z,32.63
2023-03-22T01:41:39.298Z,29.83
2023-03-22T01:44:16.552Z,29.50
2023-03-22T01:46:47.076Z,31.13
2023-03-22T01:49:34.983Z,33.43
2023-03-22T01:52:14.791Z,29.50
2023-03-22T01:54:48.806Z,31.90
2023-03-22T01:57:16.711Z,29.47
2023-03-22T01:59:45.195Z,29.87
2023-03-22T02:02:20.256Z,28.93
2023-03-22T02:04:58.269Z,30.70
2023-03-22T02:07:28.863Z,28.80
2023-03-22T02:09:57.035Z,27.67
2023-03-22T02:12:51.955Z,28.13
2023-03-22T02:15:30.402Z,31.13
2023-03-22T02:18:24.498Z,28.03
2023-03-22T02:21:12.972Z,30.57
2023-03-22T02:24:10.095Z,27.97
2023-03-22T02:27:05.130Z,27.73
2023-03-22T02:30:14.693Z,28.00
2023-03-22T02:33:10.343Z,27.67
2023-03-22T02:35:43.432Z,29.93
2023-03-22T02:38:52.726Z,28.57
2023-03-22T02:41:53.933Z,30.03
2023-03-22T02:45:01.676Z,27.73
2023-03-22T02:47:55.514Z,27.47
2023-03-22T02:50:33.434Z,27.27
2023-03-22T02:53:21.431Z,27.77
2023-03-22T02:56:01.555Z,28.97
2023-03-22T02:58:46.139Z,28.03
2023-03-22T03:01:40.185Z,29.03
2023-03-22T03:04:14.884Z,28.10
2023-03-22T03:06:47.327Z,30.03
2023-03-22T03:09:18.475Z,27.80
2023-03-22T03:11:52.780Z,28.13
2023-03-22T03:14:33.317Z,30.73
2023-03-22T03:17:57.755Z,27.80
2023-03-22T03:20:49.439Z,28.40
2023-03-22T03:23:29.053Z,28.83
2023-03-22T03:26:17.730Z,31.07
2023-03-22T03:29:30.366Z,28.23
2023-03-22T03:32:17.285Z,26.53
2023-03-22T03:35:00.002Z,27.23
2023-03-22T03:37:39.498Z,27.83
2023-03-22T03:40:34.300Z,25.87
2023-03-22T03:43:04.642Z,22.83
2023-03-22T03:45:33.177Z,25.53
2023-03-22T03:48:06.926Z,25.33
2023-03-22T03:50:35.483Z,29.00
2023-03-22T03:53:03.807Z,26.53
2023-03-22T03:55:32.225Z,27.53
2023-03-22T03:57:59.713Z,29.33
2023-03-22T04:00:27.253Z,29.73
2023-03-22T04:02:55.107Z,28.83
2023-03-22T04:05:22.557Z,27.47
2023-03-22T04:07:50.062Z,28.50
2023-03-22T04:10:17.696Z,32.00
2023-03-22T04:12:45.250Z,30.00
2023-03-22T04:15:13.259Z,33.07
2023-03-22T04:17:41.600Z,29.33
2023-03-22T04:20:11.215Z,32.63
2023-03-22T04:22:40.025Z,29.53
2023-03-22T04:25:12.185Z,26.90
2023-03-22T04:27:41.675Z,26.77
2023-03-22T04:30:19.125Z,26.83
2023-03-22T04:32:48.001Z,31.93
2023-03-22T04:35:16.499Z,35.20
2023-03-22T04:37:44.685Z,42.67
2023-03-22T04:40:17.455Z,42.40
2023-03-22T04:42:45.770Z,43.13
2023-03-22T04:45:14.512Z,43.10
2023-03-22T04:47:42.178Z,36.40
2023-03-22T04:50:10.174Z,35.50
2023-03-22T04:52:37.628Z,33.73
2023-03-22T04:55:05.651Z,37.43
2023-03-22T04:57:35.005Z,31.93
2023-03-22T05:00:06.274Z,29.20
2023-03-22T05:02:33.803Z,28.73
2023-03-22T05:05:01.783Z,28.10
2023-03-22T05:07:29.492Z,30.87
2023-03-22T05:09:56.962Z,27.07
2023-03-22T05:12:24.443Z,26.43
2023-03-22T05:14:51.982Z,27.93
2023-03-22T05:17:19.520Z,34.63
2023-03-22T05:19:47.940Z,30.97
2023-03-22T05:22:15.419Z,30.70
2023-03-22T05:24:42.954Z,31.30
2023-03-22T05:27:11.086Z,52.80
2023-03-22T05:29:38.500Z,64.60
2023-03-22T05:32:06.478Z,48.43
2023-03-22T05:34:36.095Z,36.73
2023-03-22T05:37:04.154Z,34.10
2023-03-22T05:39:32.160Z,40.50
2023-03-22T05:41:59.643Z,32.63
2023-03-22T05:44:27.160Z,38.13
2023-03-22T05:46:54.673Z,35.90
2023-03-22T05:49:22.142Z,33.50
2023-03-22T05:51:50.820Z,29.40
2023-03-22T05:54:18.284Z,30.63
2023-03-22T05:56:46.036Z,33.83
2023-03-22T05:59:13.584Z,31.87
2023-03-22T06:01:41.249Z,31.23
2023-03-22T06:04:08.751Z,31.20
2023-03-22T06:06:36.243Z,31.10
2023-03-22T06:09:16.569Z,31.40
2023-03-22T06:11:45.064Z,30.90
2023-03-22T06:14:12.879Z,34.23
2023-03-22T06:16:41.298Z,31.00
2023-03-22T06:19:08.899Z,29.87
2023-03-22T06:21:36.372Z,35.93
2023-03-22T06:24:04.025Z,35.30
2023-03-22T06:26:31.654Z,35.37
2023-03-22T06:28:59.164Z,43.67
2023-03-22T06:31:26.600Z,43.07
2023-03-22T06:33:55.850Z,40.43
2023-03-22T06:36:23.454Z,48.37
2023-03-22T06:38:50.919Z,60.03
2023-03-22T06:41:18.647Z,40.10
2023-03-22T06:43:46.389Z,49.30
2023-03-22T06:46:14.410Z,58.43
2023-03-22T06:48:42.100Z,42.47
2023-03-22T06:51:09.563Z,35.57
2023-03-22T06:53:37.077Z,36.00
2023-03-22T06:56:05.626Z,33.20
2023-03-22T06:58:33.185Z,29.17
2023-03-22T07:01:00.837Z,49.13
2023-03-22T07:03:28.531Z,34.73
2023-03-22T07:06:04.400Z,30.10
2023-03-22T07:08:31.946Z,29.57
2023-03-22T07:11:00.413Z,29.27
2023-03-22T07:13:28.206Z,29.47
2023-03-22T07:16:01.359Z,29.50
2023-03-22T07:18:30.780Z,30.63
2023-03-22T07:20:58.270Z,29.07
2023-03-22T07:23:26.188Z,28.00
2023-03-22T07:25:56.093Z,32.50
2023-03-22T07:28:23.861Z,31.83
2023-03-22T07:31:01.741Z,26.07
2023-03-22T07:33:29.681Z,25.50
2023-03-22T07:35:57.198Z,26.43
2023-03-22T07:38:25.126Z,25.03
2023-03-22T07:40:56.916Z,26.93
2023-03-22T07:43:24.975Z,26.63
2023-03-22T07:45:53.337Z,24.90
2023-03-22T07:48:24.031Z,25.63
2023-03-22T07:50:56.674Z,26.40
2023-03-22T07:53:24.180Z,26.67
2023-03-22T07:55:52.375Z,25.77
2023-03-22T07:58:21.346Z,25.73
2023-03-22T08:00:50.535Z,26.90
2023-03-22T08:03:18.046Z,26.50
2023-03-22T08:05:45.676Z,25.30
2023-03-22T08:08:13.749Z,24.13
2023-03-22T08:10:41.523Z,24.17
2023-03-22T08:13:09.304Z,25.30
2023-03-22T08:15:38.828Z,23.10
2023-03-22T08:18:08.828Z,19.77
2023-03-22T08:20:38.568Z,22.83
2023-03-22T08:23:08.166Z,20.83
2023-03-22T08:25:37.265Z,22.80
2023-03-22T08:28:04.894Z,24.07
2023-03-22T08:30:33.379Z,22.57
2023-03-22T08:33:01.225Z,22.10
2023-03-22T08:35:28.785Z,22.40
2023-03-22T08:37:57.361Z,21.97
2023-03-22T08:40:24.875Z,21.00
2023-03-22T08:42:52.418Z,21.30
2023-03-22T08:45:20.000Z,22.17
2023-03-22T08:47:47.480Z,20.03
2023-03-22T08:50:15.100Z,19.37
2023-03-22T08:52:42.636Z,19.63
2023-03-22T08:55:10.702Z,18.90
2023-03-22T08:57:38.943Z,17.47
2023-03-22T09:00:07.866Z,17.73
2023-03-22T09:02:35.481Z,18.57
2023-03-22T09:05:02.940Z,19.43
2023-03-22T09:07:30.673Z,19.23
2023-03-22T09:09:58.187Z,19.17
2023-03-22T09:12:26.400Z,19.17
2023-03-22T09:14:55.769Z,17.23
2023-03-22T09:17:24.331Z,18.80
2023-03-22T09:20:02.737Z,21.03
2023-03-22T09:22:37.508Z,20.73
2023-03-22T09:25:06.314Z,19.40
2023-03-22T09:27:34.348Z,19.60
2023-03-22T09:30:01.835Z,18.03
2023-03-22T09:32:29.310Z,19.50
2023-03-22T09:34:56.811Z,18.67
2023-03-22T09:37:30.448Z,18.50
2023-03-22T09:39:58.458Z,15.97
2023-03-22T09:42:50.966Z,19.03
2023-03-22T09:45:33.101Z,17.73
2023-03-22T09:48:01.649Z,16.80
2023-03-22T09:50:33.394Z,13.60
2023-03-22T09:53:01.429Z,17.33
2023-03-22T09:55:52.748Z,16.60
2023-03-22T09:58:41.836Z,12.07
2023-03-22T10:01:25.481Z,12.07
2023-03-22T10:04:11.551Z,14.33
2023-03-22T10:06:40.535Z,15.77
2023-03-22T10:09:34.995Z,23.77
2023-03-22T10:12:16.711Z,13.73
2023-03-22T10:14:58.986Z,13.10
2023-03-22T10:17:30.149Z,12.40
2023-03-22T10:20:09.670Z,13.00
2023-03-22T10:22:42.258Z,10.47
2023-03-22T10:25:16.206Z,13.60
2023-03-22T10:27:44.158Z,14.03
2023-03-22T10:30:27.831Z,15.30
2023-03-22T10:33:03.375Z,9.10
2023-03-22T10:35:32.358Z,9.90
2023-03-22T10:38:04.397Z,11.13
2023-03-22T10:40:35.377Z,8.60
2023-03-22T10:43:37.484Z,8.10
2023-03-22T10:46:09.216Z,8.47
2023-03-22T10:48:42.671Z,9.33
2023-03-22T10:51:46.402Z,9.67
2023-03-22T10:54:17.307Z,9.80
2023-03-22T10:56:45.906Z,10.10
2023-03-22T10:59:58.867Z,9.13
2023-03-22T11:02:32.957Z,9.70
2023-03-22T11:05:04.586Z,10.00
2023-03-22T11:07:45.077Z,9.30
2023-03-22T11:10:30.178Z,9.80
2023-03-22T11:13:14.620Z,9.50
2023-03-22T11:15:54.984Z,10.20
2023-03-22T11:18:23.218Z,10.53
2023-03-22T11:21:01.427Z,10.30
2023-03-22T11:23:34.305Z,8.37
2023-03-22T11:26:13.210Z,9.57
2023-03-22T11:28:51.333Z,8.67
2023-03-22T11:31:21.378Z,8.20
2023-03-22T11:34:02.513Z,7.03
2023-03-22T11:36:30.200Z,8.93
2023-03-22T11:39:07.448Z,9.73
2023-03-22T11:41:40.287Z,12.50
2023-03-22T11:44:16.249Z,9.43
2023-03-22T11:46:58.174Z,8.73
2023-03-22T11:49:51.473Z,8.13
2023-03-22T11:52:25.124Z,9.57
2023-03-22T11:54:54.800Z,12.83
2023-03-22T11:57:27.043Z,9.83
2023-03-22T12:00:21.584Z,9.77
2023-03-22T12:03:14.301Z,9.37
2023-03-22T12:05:45.338Z,10.87
2023-03-22T12:08:43.075Z,7.87
2023-03-22T12:11:40.036Z,10.23
2023-03-22T12:14:33.330Z,9.63
2023-03-22T12:17:21.615Z,10.67
2023-03-22T12:20:12.958Z,11.03
2023-03-22T12:22:51.260Z,9.07
2023-03-22T12:25:25.560Z,9.80
2023-03-22T12:28:27.207Z,9.33
2023-03-22T12:31:05.333Z,10.63
2023-03-22T12:33:52.808Z,10.50
2023-03-22T12:37:00.772Z,10.63
2023-03-22T12:40:14.645Z,10.90
2023-03-22T12:43:20.827Z,11.27
2023-03-22T12:46:03.538Z,9.27
2023-03-22T12:48:45.999Z,9.63
2023-03-22T12:51:15.617Z,10.50
2023-03-22T12:53:48.772Z,8.57
2023-03-22T12:56:42.791Z,11.63
2023-03-22T12:59:26.772Z,10.20
2023-03-22T13:02:37.056Z,9.77
2023-03-22T13:05:09.470Z,8.20
2023-03-22T13:07:52.304Z,9.77
2023-03-22T13:10:32.582Z,9.63
2023-03-22T13:13:24.464Z,9.70
2023-03-22T13:16:11.340Z,8.47
2023-03-22T13:18:43.939Z,9.93
2023-03-22T13:21:22.918Z,8.80
2023-03-22T13:24:10.646Z,7.37
2023-03-22T13:26:54.030Z,8.03
2023-03-22T13:29:33.116Z,9.27
2023-03-22T13:32:30.256Z,8.80
2023-03-22T13:34:58.074Z,6.97
2023-03-22T13:37:31.848Z,8.70
2023-03-22T13:40:02.465Z,8.27
2023-03-22T13:42:39.251Z,9.63
2023-03-22T13:45:32.495Z,9.30
2023-03-22T13:48:24.428Z,9.17
2023-03-22T13:50:53.508Z,6.77
2023-03-22T13:53:34.001Z,5.83
2023-03-22T13:56:07.497Z,6.70
2023-03-22T13:58:54.485Z,8.33
2023-03-22T14:01:37.974Z,8.07
2023-03-22T14:04:12.484Z,8.87
2023-03-22T14:07:08.653Z,7.70
2023-03-22T14:09:53.450Z,6.60
2023-03-22T14:12:30.601Z,7.17
2023-03-22T14:15:02.712Z,7.77
2023-03-22T14:17:44.603Z,7.60
2023-03-22T14:20:19.452Z,7.47
